sensor_id;sensor_type;location;lat;lon;timestamp;P1;durP1;ratioP1;P2;durP2;ratioP2
36827;SDS011;22766;48.042;11.192;2023-03-02T00:01:43;22.70;;;8.20;;
36827;SDS011;22766;48.042;11.192;2023-03-02T00:04:35;22.05;;;8.93;;
36827;SDS011;22766;48.042;11.192;2023-03-02T00:07:08;20.23;;;8.63;;
36827;SDS011;22766;48.042;11.192;2023-03-02T00:09:37;22.30;;;8.85;;
36827;SDS011;22766;48.042;11.192;2023-03-02T00:12:04;24.30;;;9.73;;
36827;SDS011;22766;48.042;11.192;2023-03-02T00:14:33;23.27;;;10.20;;
36827;SDS011;22766;48.042;11.192;2023-03-02T00:16:59;19.65;;;9.05;;
36827;SDS011;22766;48.042;11.192;2023-03-02T00:19:28;21.30;;;9.73;;
36827;SDS011;22766;48.042;11.192;2023-03-02T00:21:55;22.13;;;9.15;;
36827;SDS011;22766;48.042;11.192;2023-03-02T00:24:21;24.42;;;10.48;;
36827;SDS011;22766;48.042;11.192;2023-03-02T00:26:48;22.00;;;8.50;;
36827;SDS011;22766;48.042;11.192;2023-03-02T00:29:14;18.75;;;8.45;;
36827;SDS011;22766;48.042;11.192;2023-03-02T00:31:41;17.70;;;8.48;;
36827;SDS011;22766;48.042;11.192;2023-03-02T00:34:08;24.13;;;8.95;;
36827;SDS011;22766;48.042;11.192;2023-03-02T00:36:35;22.90;;;8.57;;
36827;SDS011;22766;48.042;11.192;2023-03-02T00:39:02;16.17;;;7.72;;
36827;SDS011;22766;48.042;11.192;2023-03-02T00:41:29;17.55;;;8.68;;
36827;SDS011;22766;48.042;11.192;2023-03-02T00:43:56;20.73;;;9.48;;
36827;SDS011;22766;48.042;11.192;2023-03-02T00:46:23;20.92;;;9.57;;
36827;SDS011;22766;48.042;11.192;2023-03-02T00:48:50;25.35;;;10.55;;
36827;SDS011;22766;48.042;11.192;2023-03-02T00:51:17;19.50;;;8.73;;
36827;SDS011;22766;48.042;11.192;2023-03-02T00:53:44;17.48;;;8.23;;
36827;SDS011;22766;48.042;11.192;2023-03-02T00:56:11;22.10;;;8.82;;
36827;SDS011;22766;48.042;11.192;2023-03-02T00:58:44;23.70;;;9.23;;
36827;SDS011;22766;48.042;11.192;2023-03-02T01:01:11;17.33;;;8.35;;
36827;SDS011;22766;48.042;11.192;2023-03-02T01:03:43;19.92;;;8.85;;
36827;SDS011;22766;48.042;11.192;2023-03-02T01:06:15;16.42;;;9.27;;
36827;SDS011;22766;48.042;11.192;2023-03-02T01:08:44;19.60;;;7.95;;
36827;SDS011;22766;48.042;11.192;2023-03-02T01:11:15;18.52;;;8.40;;
36827;SDS011;22766;48.042;11.192;2023-03-02T01:13:43;17.45;;;8.35;;
36827;SDS011;22766;48.042;11.192;2023-03-02T01:16:10;17.83;;;8.63;;
36827;SDS011;22766;48.042;11.192;2023-03-02T01:18:38;16.23;;;7.35;;
36827;SDS011;22766;48.042;11.192;2023-03-02T01:21:05;22.77;;;8.18;;
36827;SDS011;22766;48.042;11.192;2023-03-02T01:23:34;17.27;;;7.88;;
36827;SDS011;22766;48.042;11.192;2023-03-02T01:26:01;16.90;;;8.05;;
36827;SDS011;22766;48.042;11.192;2023-03-02T01:28:28;19.00;;;8.30;;
36827;SDS011;22766;48.042;11.192;2023-03-02T01:30:56;19.52;;;9.02;;
36827;SDS011;22766;48.042;11.192;2023-03-02T01:33:23;16.65;;;8.13;;
36827;SDS011;22766;48.042;11.192;2023-03-02T01:35:50;19.02;;;8.85;;
36827;SDS011;22766;48.042;11.192;2023-03-02T01:38:17;17.60;;;8.02;;
36827;SDS011;22766;48.042;11.192;2023-03-02T01:40:44;20.20;;;8.15;;
36827;SDS011;22766;48.042;11.192;2023-03-02T01:43:12;16.73;;;8.80;;
36827;SDS011;22766;48.042;11.192;2023-03-02T01:48:14;17.50;;;8.52;;
36827;SDS011;22766;48.042;11.192;2023-03-02T01:50:44;19.67;;;8.88;;
36827;SDS011;22766;48.042;11.192;2023-03-02T01:53:12;21.85;;;9.57;;
36827;SDS011;22766;48.042;11.192;2023-03-02T01:55:41;19.67;;;8.93;;
36827;SDS011;22766;48.042;11.192;2023-03-02T01:58:10;21.30;;;10.30;;
36827;SDS011;22766;48.042;11.192;2023-03-02T02:00:39;23.17;;;8.82;;
36827;SDS011;22766;48.042;11.192;2023-03-02T02:03:11;21.17;;;9.55;;
36827;SDS011;22766;48.042;11.192;2023-03-02T02:06:05;20.67;;;9.38;;
36827;SDS011;22766;48.042;11.192;2023-03-02T02:08:44;19.45;;;8.73;;
36827;SDS011;22766;48.042;11.192;2023-03-02T02:11:11;28.73;;;9.30;;
36827;SDS011;22766;48.042;11.192;2023-03-02T02:13:39;21.42;;;10.45;;
36827;SDS011;22766;48.042;11.192;2023-03-02T02:16:05;23.95;;;9.82;;
36827;SDS011;22766;48.042;11.192;2023-03-02T02:18:33;24.42;;;10.00;;
36827;SDS011;22766;48.042;11.192;2023-03-02T02:21:03;22.25;;;10.13;;
36827;SDS011;22766;48.042;11.192;2023-03-02T02:26:24;17.35;;;8.98;;
36827;SDS011;22766;48.042;11.192;2023-03-02T02:28:58;21.13;;;9.00;;
36827;SDS011;22766;48.042;11.192;2023-03-02T02:34:28;22.90;;;9.85;;
36827;SDS011;22766;48.042;11.192;2023-03-02T02:37:03;21.67;;;9.73;;
36827;SDS011;22766;48.042;11.192;2023-03-02T02:39:36;26.15;;;10.57;;
36827;SDS011;22766;48.042;11.192;2023-03-02T02:42:09;25.70;;;9.70;;
36827;SDS011;22766;48.042;11.192;2023-03-02T02:44:40;24.67;;;10.65;;
36827;SDS011;22766;48.042;11.192;2023-03-02T02:47:14;20.20;;;10.70;;
36827;SDS011;22766;48.042;11.192;2023-03-02T02:49:44;26.52;;;10.68;;
36827;SDS011;22766;48.042;11.192;2023-03-02T02:52:14;28.40;;;12.35;;
36827;SDS011;22766;48.042;11.192;2023-03-02T02:54:43;28.48;;;10.27;;
36827;SDS011;22766;48.042;11.192;2023-03-02T02:57:14;27.80;;;12.63;;
36827;SDS011;22766;48.042;11.192;2023-03-02T02:59:46;27.15;;;11.93;;
36827;SDS011;22766;48.042;11.192;2023-03-02T03:02:18;22.58;;;10.60;;
36827;SDS011;22766;48.042;11.192;2023-03-02T03:04:48;24.02;;;10.65;;
36827;SDS011;22766;48.042;11.192;2023-03-02T03:07:20;23.73;;;10.57;;
36827;SDS011;22766;48.042;11.192;2023-03-02T03:09:52;24.55;;;10.18;;
36827;SDS011;22766;48.042;11.192;2023-03-02T03:12:24;29.65;;;11.45;;
36827;SDS011;22766;48.042;11.192;2023-03-02T03:14:52;28.25;;;11.68;;
36827;SDS011;22766;48.042;11.192;2023-03-02T03:17:19;24.55;;;10.90;;
36827;SDS011;22766;48.042;11.192;2023-03-02T03:19:52;24.95;;;11.98;;
36827;SDS011;22766;48.042;11.192;2023-03-02T03:22:18;32.30;;;12.63;;
36827;SDS011;22766;48.042;11.192;2023-03-02T03:24:47;23.52;;;12.70;;
36827;SDS011;22766;48.042;11.192;2023-03-02T03:27:16;26.40;;;12.45;;
36827;SDS011;22766;48.042;11.192;2023-03-02T03:29:45;29.95;;;12.45;;
36827;SDS011;22766;48.042;11.192;2023-03-02T03:32:16;32.63;;;12.45;;
36827;SDS011;22766;48.042;11.192;2023-03-02T03:34:44;35.85;;;13.95;;
36827;SDS011;22766;48.042;11.192;2023-03-02T03:37:18;31.92;;;13.50;;
36827;SDS011;22766;48.042;11.192;2023-03-02T03:39:46;36.83;;;13.32;;
36827;SDS011;22766;48.042;11.192;2023-03-02T03:42:14;35.75;;;13.02;;
36827;SDS011;22766;48.042;11.192;2023-03-02T03:44:42;28.65;;;12.32;;
36827;SDS011;22766;48.042;11.192;2023-03-02T03:47:09;30.65;;;11.65;;
36827;SDS011;22766;48.042;11.192;2023-03-02T03:49:36;29.42;;;13.10;;
36827;SDS011;22766;48.042;11.192;2023-03-02T03:52:04;30.65;;;12.85;;
36827;SDS011;22766;48.042;11.192;2023-03-02T03:54:31;31.75;;;13.38;;
36827;SDS011;22766;48.042;11.192;2023-03-02T03:56:58;33.45;;;14.73;;
36827;SDS011;22766;48.042;11.192;2023-03-02T03:59:25;28.80;;;13.65;;
36827;SDS011;22766;48.042;11.192;2023-03-02T04:01:59;27.65;;;11.90;;
36827;SDS011;22766;48.042;11.192;2023-03-02T04:04:32;30.40;;;12.38;;
36827;SDS011;22766;48.042;11.192;2023-03-02T04:07:05;32.97;;;13.05;;
36827;SDS011;22766;48.042;11.192;2023-03-02T04:09:33;28.73;;;12.88;;
36827;SDS011;22766;48.042;11.192;2023-03-02T04:12:06;32.10;;;12.57;;
36827;SDS011;22766;48.042;11.192;2023-03-02T04:14:34;26.17;;;12.25;;
36827;SDS011;22766;48.042;11.192;2023-03-02T04:17:01;27.83;;;12.38;;
36827;SDS011;22766;48.042;11.192;2023-03-02T04:19:32;25.98;;;12.05;;
36827;SDS011;22766;48.042;11.192;2023-03-02T04:22:01;38.42;;;13.60;;
36827;SDS011;22766;48.042;11.192;2023-03-02T04:24:31;25.35;;;12.68;;
36827;SDS011;22766;48.042;11.192;2023-03-02T04:27:00;30.77;;;13.60;;
36827;SDS011;22766;48.042;11.192;2023-03-02T04:29:27;34.05;;;13.07;;
36827;SDS011;22766;48.042;11.192;2023-03-02T04:31:54;26.35;;;10.77;;
36827;SDS011;22766;48.042;11.192;2023-03-02T04:34:23;24.55;;;10.45;;
36827;SDS011;22766;48.042;11.192;2023-03-02T04:36:51;36.60;;;11.45;;
36827;SDS011;22766;48.042;11.192;2023-03-02T04:39:19;28.30;;;12.50;;
36827;SDS011;22766;48.042;11.192;2023-03-02T04:41:49;28.50;;;12.38;;
36827;SDS011;22766;48.042;11.192;2023-03-02T04:44:16;31.42;;;12.07;;
36827;SDS011;22766;48.042;11.192;2023-03-02T04:46:44;34.30;;;13.40;;
36827;SDS011;22766;48.042;11.192;2023-03-02T04:49:12;25.70;;;12.05;;
36827;SDS011;22766;48.042;11.192;2023-03-02T04:51:41;26.48;;;12.07;;
36827;SDS011;22766;48.042;11.192;2023-03-02T04:54:15;33.75;;;13.02;;
36827;SDS011;22766;48.042;11.192;2023-03-02T04:56:44;33.90;;;13.13;;
36827;SDS011;22766;48.042;11.192;2023-03-02T04:59:14;29.80;;;12.98;;
36827;SDS011;22766;48.042;11.192;2023-03-02T05:01:42;40.67;;;13.98;;
36827;SDS011;22766;48.042;11.192;2023-03-02T05:04:10;31.05;;;12.80;;
36827;SDS011;22766;48.042;11.192;2023-03-02T05:06:37;36.75;;;14.27;;
36827;SDS011;22766;48.042;11.192;2023-03-02T05:09:04;36.80;;;12.88;;
36827;SDS011;22766;48.042;11.192;2023-03-02T05:11:31;35.67;;;12.48;;
36827;SDS011;22766;48.042;11.192;2023-03-02T05:14:00;33.70;;;14.02;;
36827;SDS011;22766;48.042;11.192;2023-03-02T05:16:30;35.33;;;12.30;;
36827;SDS011;22766;48.042;11.192;2023-03-02T05:19:00;32.63;;;12.70;;
36827;SDS011;22766;48.042;11.192;2023-03-02T05:21:29;27.13;;;12.50;;
36827;SDS011;22766;48.042;11.192;2023-03-02T05:23:55;30.90;;;12.63;;
36827;SDS011;22766;48.042;11.192;2023-03-02T05:26:22;31.55;;;13.48;;
36827;SDS011;22766;48.042;11.192;2023-03-02T05:28:49;30.92;;;11.93;;
36827;SDS011;22766;48.042;11.192;2023-03-02T05:31:32;26.25;;;12.88;;
36827;SDS011;22766;48.042;11.192;2023-03-02T05:34:02;34.95;;;14.05;;
36827;SDS011;22766;48.042;11.192;2023-03-02T05:36:29;35.08;;;12.57;;
36827;SDS011;22766;48.042;11.192;2023-03-02T05:38:56;29.70;;;11.82;;
36827;SDS011;22766;48.042;11.192;2023-03-02T05:41:23;26.20;;;12.30;;
36827;SDS011;22766;48.042;11.192;2023-03-02T05:43:50;28.08;;;12.20;;
36827;SDS011;22766;48.042;11.192;2023-03-02T05:46:17;22.65;;;11.73;;
36827;SDS011;22766;48.042;11.192;2023-03-02T05:48:47;25.25;;;12.32;;
36827;SDS011;22766;48.042;11.192;2023-03-02T05:51:14;28.40;;;12.48;;
36827;SDS011;22766;48.042;11.192;2023-03-02T05:53:41;29.58;;;12.60;;
36827;SDS011;22766;48.042;11.192;2023-03-02T05:56:07;27.15;;;11.85;;
36827;SDS011;22766;48.042;11.192;2023-03-02T05:58:34;27.90;;;12.05;;
36827;SDS011;22766;48.042;11.192;2023-03-02T06:01:01;31.13;;;13.73;;
36827;SDS011;22766;48.042;11.192;2023-03-02T06:03:34;29.00;;;12.38;;
36827;SDS011;22766;48.042;11.192;2023-03-02T06:06:00;25.20;;;11.52;;
36827;SDS011;22766;48.042;11.192;2023-03-02T06:08:27;25.88;;;11.38;;
36827;SDS011;22766;48.042;11.192;2023-03-02T06:10:54;25.33;;;12.68;;
36827;SDS011;22766;48.042;11.192;2023-03-02T06:13:22;33.13;;;12.98;;
36827;SDS011;22766;48.042;11.192;2023-03-02T06:15:49;30.88;;;12.85;;
36827;SDS011;22766;48.042;11.192;2023-03-02T06:18:15;35.10;;;11.88;;
36827;SDS011;22766;48.042;11.192;2023-03-02T06:20:42;23.80;;;11.95;;
36827;SDS011;22766;48.042;11.192;2023-03-02T06:23:09;28.98;;;11.73;;
36827;SDS011;22766;48.042;11.192;2023-03-02T06:25:37;26.83;;;10.90;;
36827;SDS011;22766;48.042;11.192;2023-03-02T06:28:06;27.55;;;12.23;;
36827;SDS011;22766;48.042;11.192;2023-03-02T06:30:33;28.05;;;10.95;;
36827;SDS011;22766;48.042;11.192;2023-03-02T06:33:00;26.88;;;12.02;;
36827;SDS011;22766;48.042;11.192;2023-03-02T06:35:27;27.67;;;11.35;;
36827;SDS011;22766;48.042;11.192;2023-03-02T06:37:54;30.38;;;11.85;;
36827;SDS011;22766;48.042;11.192;2023-03-02T06:40:21;26.88;;;11.02;;
36827;SDS011;22766;48.042;11.192;2023-03-02T06:42:48;33.58;;;11.52;;
36827;SDS011;22766;48.042;11.192;2023-03-02T06:45:15;25.05;;;11.68;;
36827;SDS011;22766;48.042;11.192;2023-03-02T06:47:41;25.38;;;11.43;;
36827;SDS011;22766;48.042;11.192;2023-03-02T06:50:08;34.10;;;13.05;;
36827;SDS011;22766;48.042;11.192;2023-03-02T06:52:35;19.85;;;9.82;;
36827;SDS011;22766;48.042;11.192;2023-03-02T06:55:02;28.45;;;12.07;;
36827;SDS011;22766;48.042;11.192;2023-03-02T06:57:29;26.95;;;11.48;;
36827;SDS011;22766;48.042;11.192;2023-03-02T07:00:00;30.33;;;11.43;;
36827;SDS011;22766;48.042;11.192;2023-03-02T07:02:30;25.20;;;11.35;;
36827;SDS011;22766;48.042;11.192;2023-03-02T07:04:56;31.63;;;11.88;;
36827;SDS011;22766;48.042;11.192;2023-03-02T07:07:23;25.02;;;11.32;;
36827;SDS011;22766;48.042;11.192;2023-03-02T07:09:50;32.42;;;12.23;;
36827;SDS011;22766;48.042;11.192;2023-03-02T07:12:17;22.38;;;11.82;;
36827;SDS011;22766;48.042;11.192;2023-03-02T07:14:43;30.38;;;13.05;;
36827;SDS011;22766;48.042;11.192;2023-03-02T07:17:10;29.58;;;12.60;;
36827;SDS011;22766;48.042;11.192;2023-03-02T07:19:37;27.23;;;11.85;;
36827;SDS011;22766;48.042;11.192;2023-03-02T07:22:06;34.78;;;12.07;;
36827;SDS011;22766;48.042;11.192;2023-03-02T07:24:33;28.10;;;11.75;;
36827;SDS011;22766;48.042;11.192;2023-03-02T07:26:59;29.75;;;11.35;;
36827;SDS011;22766;48.042;11.192;2023-03-02T07:29:26;25.83;;;10.65;;
36827;SDS011;22766;48.042;11.192;2023-03-02T07:31:53;30.85;;;12.50;;
36827;SDS011;22766;48.042;11.192;2023-03-02T07:34:23;29.55;;;10.18;;
36827;SDS011;22766;48.042;11.192;2023-03-02T07:36:50;26.95;;;11.68;;
36827;SDS011;22766;48.042;11.192;2023-03-02T07:39:18;28.10;;;10.77;;
36827;SDS011;22766;48.042;11.192;2023-03-02T07:41:45;30.00;;;12.10;;
36827;SDS011;22766;48.042;11.192;2023-03-02T07:44:12;29.73;;;11.77;;
36827;SDS011;22766;48.042;11.192;2023-03-02T07:46:39;23.38;;;10.73;;
36827;SDS011;22766;48.042;11.192;2023-03-02T07:49:06;25.30;;;11.30;;
36827;SDS011;22766;48.042;11.192;2023-03-02T07:51:33;28.30;;;10.60;;
36827;SDS011;22766;48.042;11.192;2023-03-02T07:54:00;25.02;;;11.07;;
36827;SDS011;22766;48.042;11.192;2023-03-02T07:56:28;27.60;;;10.75;;
36827;SDS011;22766;48.042;11.192;2023-03-02T07:58:54;26.25;;;11.63;;
36827;SDS011;22766;48.042;11.192;2023-03-02T08:01:21;22.50;;;10.65;;
36827;SDS011;22766;48.042;11.192;2023-03-02T08:03:48;25.80;;;11.40;;
36827;SDS011;22766;48.042;11.192;2023-03-02T08:06:15;30.63;;;10.57;;
36827;SDS011;22766;48.042;11.192;2023-03-02T08:08:41;26.65;;;10.32;;
36827;SDS011;22766;48.042;11.192;2023-03-02T08:11:10;29.58;;;11.60;;
36827;SDS011;22766;48.042;11.192;2023-03-02T08:13:38;25.88;;;11.45;;
36827;SDS011;22766;48.042;11.192;2023-03-02T08:16:05;27.30;;;12.50;;
36827;SDS011;22766;48.042;11.192;2023-03-02T08:18:34;21.95;;;10.18;;
36827;SDS011;22766;48.042;11.192;2023-03-02T08:21:01;23.83;;;11.10;;
36827;SDS011;22766;48.042;11.192;2023-03-02T08:23:28;24.05;;;10.30;;
36827;SDS011;22766;48.042;11.192;2023-03-02T08:25:55;23.55;;;9.75;;
36827;SDS011;22766;48.042;11.192;2023-03-02T08:28:21;29.27;;;11.48;;
36827;SDS011;22766;48.042;11.192;2023-03-02T08:30:55;24.88;;;10.25;;
36827;SDS011;22766;48.042;11.192;2023-03-02T08:33:26;24.67;;;11.55;;
36827;SDS011;22766;48.042;11.192;2023-03-02T08:35:54;21.73;;;10.35;;
36827;SDS011;22766;48.042;11.192;2023-03-02T08:38:26;28.65;;;10.98;;
36827;SDS011;22766;48.042;11.192;2023-03-02T08:40:54;28.25;;;12.00;;
36827;SDS011;22766;48.042;11.192;2023-03-02T08:43:22;23.02;;;10.60;;
36827;SDS011;22766;48.042;11.192;2023-03-02T08:45:50;24.73;;;11.25;;
36827;SDS011;22766;48.042;11.192;2023-03-02T08:48:18;23.58;;;11.10;;
36827;SDS011;22766;48.042;11.192;2023-03-02T08:53:27;20.67;;;9.57;;
36827;SDS011;22766;48.042;11.192;2023-03-02T08:55:56;24.90;;;9.70;;
36827;SDS011;22766;48.042;11.192;2023-03-02T08:58:22;26.75;;;10.45;;
36827;SDS011;22766;48.042;11.192;2023-03-02T09:00:49;26.40;;;10.63;;
36827;SDS011;22766;48.042;11.192;2023-03-02T09:03:16;23.23;;;11.15;;
36827;SDS011;22766;48.042;11.192;2023-03-02T09:05:43;25.60;;;11.40;;
36827;SDS011;22766;48.042;11.192;2023-03-02T09:08:10;24.10;;;10.63;;
36827;SDS011;22766;48.042;11.192;2023-03-02T09:10:37;23.52;;;11.30;;
36827;SDS011;22766;48.042;11.192;2023-03-02T09:13:04;25.40;;;11.75;;
36827;SDS011;22766;48.042;11.192;2023-03-02T09:15:33;25.73;;;10.70;;
36827;SDS011;22766;48.042;11.192;2023-03-02T09:18:00;25.63;;;11.32;;
36827;SDS011;22766;48.042;11.192;2023-03-02T09:20:27;23.77;;;10.73;;
36827;SDS011;22766;48.042;11.192;2023-03-02T09:22:54;25.55;;;10.98;;
36827;SDS011;22766;48.042;11.192;2023-03-02T09:25:20;24.10;;;10.75;;
36827;SDS011;22766;48.042;11.192;2023-03-02T09:27:47;28.10;;;10.80;;
36827;SDS011;22766;48.042;11.192;2023-03-02T09:30:14;25.25;;;11.90;;
36827;SDS011;22766;48.042;11.192;2023-03-02T09:32:41;24.02;;;9.93;;
36827;SDS011;22766;48.042;11.192;2023-03-02T09:35:08;23.38;;;11.07;;
36827;SDS011;22766;48.042;11.192;2023-03-02T09:37:35;26.92;;;11.10;;
36827;SDS011;22766;48.042;11.192;2023-03-02T09:40:05;24.08;;;10.70;;
36827;SDS011;22766;48.042;11.192;2023-03-02T09:42:45;21.50;;;10.30;;
36827;SDS011;22766;48.042;11.192;2023-03-02T09:55:56;26.17;;;10.65;;
36827;SDS011;22766;48.042;11.192;2023-03-02T09:58:27;21.92;;;10.10;;
36827;SDS011;22766;48.042;11.192;2023-03-02T10:00:59;25.52;;;10.75;;
36827;SDS011;22766;48.042;11.192;2023-03-02T10:03:34;24.85;;;11.65;;
36827;SDS011;22766;48.042;11.192;2023-03-02T10:06:12;22.08;;;9.98;;
36827;SDS011;22766;48.042;11.192;2023-03-02T10:08:39;23.25;;;10.50;;
36827;SDS011;22766;48.042;11.192;2023-03-02T10:14:06;23.90;;;8.80;;
36827;SDS011;22766;48.042;11.192;2023-03-02T10:16:58;24.15;;;10.40;;
36827;SDS011;22766;48.042;11.192;2023-03-02T10:19:46;19.38;;;9.55;;
36827;SDS011;22766;48.042;11.192;2023-03-02T10:22:30;21.27;;;10.25;;
36827;SDS011;22766;48.042;11.192;2023-03-02T10:28:08;23.10;;;10.07;;
36827;SDS011;22766;48.042;11.192;2023-03-02T10:30:59;21.73;;;9.98;;
36827;SDS011;22766;48.042;11.192;2023-03-02T10:33:35;25.83;;;9.75;;
36827;SDS011;22766;48.042;11.192;2023-03-02T10:36:04;23.63;;;10.15;;
36827;SDS011;22766;48.042;11.192;2023-03-02T10:38:46;27.38;;;12.40;;
36827;SDS011;22766;48.042;11.192;2023-03-02T10:41:14;22.48;;;10.40;;
36827;SDS011;22766;48.042;11.192;2023-03-02T10:46:16;23.73;;;11.15;;
36827;SDS011;22766;48.042;11.192;2023-03-02T10:48:50;25.48;;;11.35;;
36827;SDS011;22766;48.042;11.192;2023-03-02T10:51:23;25.42;;;10.90;;
36827;SDS011;22766;48.042;11.192;2023-03-02T10:54:16;22.25;;;10.23;;
36827;SDS011;22766;48.042;11.192;2023-03-02T10:56:46;21.02;;;9.68;;
36827;SDS011;22766;48.042;11.192;2023-03-02T11:04:35;26.35;;;10.27;;
36827;SDS011;22766;48.042;11.192;2023-03-02T11:09:41;20.30;;;9.88;;
36827;SDS011;22766;48.042;11.192;2023-03-02T11:12:14;21.30;;;9.60;;
36827;SDS011;22766;48.042;11.192;2023-03-02T11:14:42;19.48;;;9.32;;
36827;SDS011;22766;48.042;11.192;2023-03-02T11:20:08;22.77;;;10.30;;
36827;SDS011;22766;48.042;11.192;2023-03-02T11:25:33;23.50;;;10.02;;
36827;SDS011;22766;48.042;11.192;2023-03-02T11:30:51;19.65;;;9.73;;
36827;SDS011;22766;48.042;11.192;2023-03-02T11:34:04;18.73;;;10.23;;
36827;SDS011;22766;48.042;11.192;2023-03-02T11:36:44;22.25;;;9.80;;
36827;SDS011;22766;48.042;11.192;2023-03-02T11:39:18;22.98;;;9.07;;
36827;SDS011;22766;48.042;11.192;2023-03-02T11:41:50;20.10;;;9.27;;
36827;SDS011;22766;48.042;11.192;2023-03-02T11:44:20;21.52;;;10.13;;
36827;SDS011;22766;48.042;11.192;2023-03-02T11:46:52;18.33;;;9.55;;
36827;SDS011;22766;48.042;11.192;2023-03-02T11:49:26;21.00;;;9.75;;
36827;SDS011;22766;48.042;11.192;2023-03-02T11:52:03;22.05;;;9.93;;
36827;SDS011;22766;48.042;11.192;2023-03-02T11:54:40;20.58;;;9.43;;
36827;SDS011;22766;48.042;11.192;2023-03-02T11:57:48;17.77;;;10.13;;
36827;SDS011;22766;48.042;11.192;2023-03-02T12:02:59;40.75;;;11.90;;
36827;SDS011;22766;48.042;11.192;2023-03-02T12:05:29;24.95;;;11.43;;
36827;SDS011;22766;48.042;11.192;2023-03-02T12:13:14;25.67;;;11.05;;
36827;SDS011;22766;48.042;11.192;2023-03-02T12:15:47;21.77;;;9.75;;
36827;SDS011;22766;48.042;11.192;2023-03-02T12:21:01;23.92;;;11.10;;
36827;SDS011;22766;48.042;11.192;2023-03-02T12:23:33;27.77;;;11.73;;
36827;SDS011;22766;48.042;11.192;2023-03-02T12:26:31;21.35;;;10.32;;
36827;SDS011;22766;48.042;11.192;2023-03-02T12:36:46;26.92;;;10.98;;
36827;SDS011;22766;48.042;11.192;2023-03-02T12:47:48;20.80;;;9.48;;
36827;SDS011;22766;48.042;11.192;2023-03-02T12:50:23;23.80;;;10.40;;
36827;SDS011;22766;48.042;11.192;2023-03-02T12:53:02;22.40;;;10.97;;
36827;SDS011;22766;48.042;11.192;2023-03-02T12:55:31;23.30;;;10.50;;
36827;SDS011;22766;48.042;11.192;2023-03-02T12:58:00;29.35;;;11.68;;
36827;SDS011;22766;48.042;11.192;2023-03-02T13:00:28;22.67;;;10.40;;
36827;SDS011;22766;48.042;11.192;2023-03-02T13:02:57;23.33;;;10.73;;
36827;SDS011;22766;48.042;11.192;2023-03-02T13:05:31;26.77;;;11.52;;
36827;SDS011;22766;48.042;11.192;2023-03-02T13:08:14;23.23;;;10.73;;
36827;SDS011;22766;48.042;11.192;2023-03-02T13:10:48;26.60;;;11.20;;
36827;SDS011;22766;48.042;11.192;2023-03-02T13:13:18;21.88;;;10.40;;
36827;SDS011;22766;48.042;11.192;2023-03-02T13:15:51;18.00;;;9.73;;
36827;SDS011;22766;48.042;11.192;2023-03-02T13:18:21;25.58;;;11.80;;
36827;SDS011;22766;48.042;11.192;2023-03-02T13:20:49;24.00;;;11.55;;
36827;SDS011;22766;48.042;11.192;2023-03-02T13:23:17;25.70;;;10.68;;
36827;SDS011;22766;48.042;11.192;2023-03-02T13:28:25;23.65;;;10.68;;
36827;SDS011;22766;48.042;11.192;2023-03-02T13:33:44;22.73;;;11.15;;
36827;SDS011;22766;48.042;11.192;2023-03-02T13:36:22;19.45;;;10.13;;
36827;SDS011;22766;48.042;11.192;2023-03-02T13:38:55;26.95;;;9.63;;
36827;SDS011;22766;48.042;11.192;2023-03-02T13:43:56;22.77;;;10.65;;
36827;SDS011;22766;48.042;11.192;2023-03-02T13:46:25;22.33;;;11.27;;
36827;SDS011;22766;48.042;11.192;2023-03-02T13:49:03;22.67;;;10.27;;
36827;SDS011;22766;48.042;11.192;2023-03-02T13:51:38;24.35;;;11.32;;
36827;SDS011;22766;48.042;11.192;2023-03-02T13:54:17;23.25;;;11.25;;
36827;SDS011;22766;48.042;11.192;2023-03-02T13:56:47;20.77;;;11.07;;
36827;SDS011;22766;48.042;11.192;2023-03-02T13:59:17;25.08;;;11.27;;
36827;SDS011;22766;48.042;11.192;2023-03-02T14:01:45;23.67;;;10.02;;
36827;SDS011;22766;48.042;11.192;2023-03-02T14:04:13;24.02;;;10.75;;
36827;SDS011;22766;48.042;11.192;2023-03-02T14:06:45;20.50;;;11.38;;
36827;SDS011;22766;48.042;11.192;2023-03-02T14:09:12;24.15;;;10.65;;
36827;SDS011;22766;48.042;11.192;2023-03-02T14:11:43;23.67;;;10.23;;
36827;SDS011;22766;48.042;11.192;2023-03-02T14:14:13;23.77;;;10.48;;
36827;SDS011;22766;48.042;11.192;2023-03-02T14:16:43;28.45;;;11.95;;
36827;SDS011;22766;48.042;11.192;2023-03-02T14:19:11;22.17;;;10.63;;
36827;SDS011;22766;48.042;11.192;2023-03-02T14:21:39;25.45;;;10.27;;
36827;SDS011;22766;48.042;11.192;2023-03-02T14:24:07;21.50;;;10.70;;
36827;SDS011;22766;48.042;11.192;2023-03-02T14:26:35;25.27;;;10.65;;
36827;SDS011;22766;48.042;11.192;2023-03-02T14:31:55;26.50;;;11.32;;
36827;SDS011;22766;48.042;11.192;2023-03-02T14:34:23;22.23;;;10.30;;
36827;SDS011;22766;48.042;11.192;2023-03-02T14:36:51;24.27;;;10.98;;
36827;SDS011;22766;48.042;11.192;2023-03-02T14:39:20;23.25;;;11.32;;
36827;SDS011;22766;48.042;11.192;2023-03-02T14:41:49;24.80;;;11.20;;
36827;SDS011;22766;48.042;11.192;2023-03-02T14:44:20;26.38;;;10.82;;
36827;SDS011;22766;48.042;11.192;2023-03-02T14:46:47;23.27;;;10.63;;
36827;SDS011;22766;48.042;11.192;2023-03-02T14:49:13;25.17;;;11.13;;
36827;SDS011;22766;48.042;11.192;2023-03-02T14:51:40;26.92;;;11.93;;
36827;SDS011;22766;48.042;11.192;2023-03-02T14:54:13;23.98;;;11.02;;
36827;SDS011;22766;48.042;11.192;2023-03-02T14:56:44;24.38;;;11.45;;
36827;SDS011;22766;48.042;11.192;2023-03-02T14:59:12;23.33;;;11.63;;
36827;SDS011;22766;48.042;11.192;2023-03-02T15:01:40;25.33;;;11.18;;
36827;SDS011;22766;48.042;11.192;2023-03-02T15:04:09;25.73;;;12.00;;
36827;SDS011;22766;48.042;11.192;2023-03-02T15:06:37;24.15;;;10.85;;
36827;SDS011;22766;48.042;11.192;2023-03-02T15:09:05;30.05;;;12.85;;
36827;SDS011;22766;48.042;11.192;2023-03-02T15:11:33;24.75;;;12.40;;
36827;SDS011;22766;48.042;11.192;2023-03-02T15:14:00;26.85;;;13.23;;
36827;SDS011;22766;48.042;11.192;2023-03-02T15:16:27;27.13;;;11.35;;
36827;SDS011;22766;48.042;11.192;2023-03-02T15:18:54;27.33;;;11.52;;
36827;SDS011;22766;48.042;11.192;2023-03-02T15:21:23;30.83;;;12.45;;
36827;SDS011;22766;48.042;11.192;2023-03-02T15:23:50;21.13;;;10.40;;
36827;SDS011;22766;48.042;11.192;2023-03-02T15:26:17;27.63;;;11.85;;
36827;SDS011;22766;48.042;11.192;2023-03-02T15:28:44;29.30;;;12.38;;
36827;SDS011;22766;48.042;11.192;2023-03-02T15:31:11;30.70;;;11.00;;
36827;SDS011;22766;48.042;11.192;2023-03-02T15:33:40;29.27;;;11.23;;
36827;SDS011;22766;48.042;11.192;2023-03-02T15:36:08;25.20;;;11.25;;
36827;SDS011;22766;48.042;11.192;2023-03-02T15:38:35;25.92;;;12.18;;
36827;SDS011;22766;48.042;11.192;2023-03-02T15:41:03;28.20;;;12.13;;
36827;SDS011;22766;48.042;11.192;2023-03-02T15:43:37;34.22;;;13.88;;
36827;SDS011;22766;48.042;11.192;2023-03-02T15:46:05;27.45;;;10.75;;
36827;SDS011;22766;48.042;11.192;2023-03-02T15:48:32;25.67;;;11.18;;
36827;SDS011;22766;48.042;11.192;2023-03-02T15:50:59;25.48;;;11.15;;